sensor_id;sensor_type;location;lat;lon;timestamp;temperature;humidity
5930;DHT22;2990;48.746;9.236;2023-07-13T00:01:28;20.00;1.00
5930;DHT22;2990;48.746;9.236;2023-07-13T00:03:54;19.90;1.00
5930;DHT22;2990;48.746;9.236;2023-07-13T00:06:20;19.90;1.00
5930;DHT22;2990;48.746;9.236;2023-07-13T00:08:46;19.80;1.00
5930;DHT22;2990;48.746;9.236;2023-07-13T00:11:14;19.80;1.00
5930;DHT22;2990;48.746;9.236;2023-07-13T00:13:41;19.80;1.00
5930;DHT22;2990;48.746;9.236;2023-07-13T00:16:09;19.70;1.00
5930;DHT22;2990;48.746;9.236;2023-07-13T00:18:35;19.70;1.00
5930;DHT22;2990;48.746;9.236;2023-07-13T00:21:01;19.60;1.00
5930;DHT22;2990;48.746;9.236;2023-07-13T00:23:32;19.60;1.00
5930;DHT22;2990;48.746;9.236;2023-07-13T00:26:02;19.60;1.00
5930;DHT22;2990;48.746;9.236;2023-07-13T00:28:28;19.60;1.00
5930;DHT22;2990;48.746;9.236;2023-07-13T00:30:54;19.60;1.00
5930;DHT22;2990;48.746;9.236;2023-07-13T00:33:20;19.50;1.00
5930;DHT22;2990;48.746;9.236;2023-07-13T00:35:45;19.60;1.00
5930;DHT22;2990;48.746;9.236;2023-07-13T00:38:11;19.40;1.00
5930;DHT22;2990;48.746;9.236;2023-07-13T00:40:37;19.40;1.00
5930;DHT22;2990;48.746;9.236;2023-07-13T00:43:04;19.40;1.00
5930;DHT22;2990;48.746;9.236;2023-07-13T00:47:56;19.30;1.00
5930;DHT22;2990;48.746;9.236;2023-07-13T00:50:23;19.20;1.00
5930;DHT22;2990;48.746;9.236;2023-07-13T00:52:55;19.20;1.00
5930;DHT22;2990;48.746;9.236;2023-07-13T00:55:23;19.20;1.00
5930;DHT22;2990;48.746;9.236;2023-07-13T00:57:49;19.20;1.00
5930;DHT22;2990;48.746;9.236;2023-07-13T01:00:14;19.20;1.00
5930;DHT22;2990;48.746;9.236;2023-07-13T01:02:42;19.10;1.00
5930;DHT22;2990;48.746;9.236;2023-07-13T01:05:18;19.10;1.00
5930;DHT22;2990;48.746;9.236;2023-07-13T01:07:45;19.00;1.00
5930;DHT22;2990;48.746;9.236;2023-07-13T01:10:12;19.00;1.00
5930;DHT22;2990;48.746;9.236;2023-07-13T01:12:38;19.00;1.00
5930;DHT22;2990;48.746;9.236;2023-07-13T01:15:04;19.00;1.00
5930;DHT22;2990;48.746;9.236;2023-07-13T01:17:33;19.00;1.00
5930;DHT22;2990;48.746;9.236;2023-07-13T01:19:59;18.90;1.00
5930;DHT22;2990;48.746;9.236;2023-07-13T01:22:26;18.90;1.00
5930;DHT22;2990;48.746;9.236;2023-07-13T01:24:53;18.90;1.00
5930;DHT22;2990;48.746;9.236;2023-07-13T01:27:26;18.90;1.00
5930;DHT22;2990;48.746;9.236;2023-07-13T01:29:52;18.90;1.00
5930;DHT22;2990;48.746;9.236;2023-07-13T01:32:20;18.90;1.00
5930;DHT22;2990;48.746;9.236;2023-07-13T01:34:50;18.80;1.00
5930;DHT22;2990;48.746;9.236;2023-07-13T01:37:16;18.90;1.00
5930;DHT22;2990;48.746;9.236;2023-07-13T01:39:41;18.80;1.00
5930;DHT22;2990;48.746;9.236;2023-07-13T01:42:07;18.70;1.00
5930;DHT22;2990;48.746;9.236;2023-07-13T01:44:33;18.70;1.00
5930;DHT22;2990;48.746;9.236;2023-07-13T01:46:58;18.70;1.00
5930;DHT22;2990;48.746;9.236;2023-07-13T01:49:24;18.70;1.00
5930;DHT22;2990;48.746;9.236;2023-07-13T01:51:49;18.60;1.00
5930;DHT22;2990;48.746;9.236;2023-07-13T01:54:15;18.60;1.00
5930;DHT22;2990;48.746;9.236;2023-07-13T01:56:40;18.60;1.00
5930;DHT22;2990;48.746;9.236;2023-07-13T01:59:07;18.50;1.00
5930;DHT22;2990;48.746;9.236;2023-07-13T02:01:33;18.50;1.00
5930;DHT22;2990;48.746;9.236;2023-07-13T02:03:58;18.50;1.00
5930;DHT22;2990;48.746;9.236;2023-07-13T02:06:23;18.40;1.00
5930;DHT22;2990;48.746;9.236;2023-07-13T02:08:49;18.30;1.00
5930;DHT22;2990;48.746;9.236;2023-07-13T02:11:14;18.20;1.00
5930;DHT22;2990;48.746;9.236;2023-07-13T02:13:40;18.30;1.00
5930;DHT22;2990;48.746;9.236;2023-07-13T02:16:06;18.20;1.00
5930;DHT22;2990;48.746;9.236;2023-07-13T02:18:32;18.20;1.00
5930;DHT22;2990;48.746;9.236;2023-07-13T02:23:23;18.20;1.00
5930;DHT22;2990;48.746;9.236;2023-07-13T02:25:49;18.20;1.00
5930;DHT22;2990;48.746;9.236;2023-07-13T02:28:14;18.10;1.00
5930;DHT22;2990;48.746;9.236;2023-07-13T02:30:40;18.10;1.80
5930;DHT22;2990;48.746;9.236;2023-07-13T02:33:06;18.10;1.20
5930;DHT22;2990;48.746;9.236;2023-07-13T02:35:31;18.00;5.60
5930;DHT22;2990;48.746;9.236;2023-07-13T02:37:57;17.90;8.20
5930;DHT22;2990;48.746;9.236;2023-07-13T02:40:22;17.80;12.50
5930;DHT22;2990;48.746;9.236;2023-07-13T02:42:48;17.80;13.00
5930;DHT22;2990;48.746;9.236;2023-07-13T02:45:13;17.70;18.00
5930;DHT22;2990;48.746;9.236;2023-07-13T02:47:41;17.70;44.60
5930;DHT22;2990;48.746;9.236;2023-07-13T02:50:07;17.70;28.80
5930;DHT22;2990;48.746;9.236;2023-07-13T02:52:33;17.60;32.90
5930;DHT22;2990;48.746;9.236;2023-07-13T02:54:58;17.50;42.00
5930;DHT22;2990;48.746;9.236;2023-07-13T02:57:24;17.50;51.20
5930;DHT22;2990;48.746;9.236;2023-07-13T02:59:49;17.50;57.60
5930;DHT22;2990;48.746;9.236;2023-07-13T03:02:15;17.50;59.10
5930;DHT22;2990;48.746;9.236;2023-07-13T03:04:40;17.40;62.50
5930;DHT22;2990;48.746;9.236;2023-07-13T03:07:06;17.50;68.80
5930;DHT22;2990;48.746;9.236;2023-07-13T03:09:33;17.50;71.20
5930;DHT22;2990;48.746;9.236;2023-07-13T03:11:58;17.60;71.20
5930;DHT22;2990;48.746;9.236;2023-07-13T03:14:24;17.60;73.30
5930;DHT22;2990;48.746;9.236;2023-07-13T03:16:50;17.60;71.90
5930;DHT22;2990;48.746;9.236;2023-07-13T03:19:17;17.60;77.10
5930;DHT22;2990;48.746;9.236;2023-07-13T03:21:43;17.70;80.80
5930;DHT22;2990;48.746;9.236;2023-07-13T03:24:09;17.70;76.40
5930;DHT22;2990;48.746;9.236;2023-07-13T03:26:34;17.70;72.70
5930;DHT22;2990;48.746;9.236;2023-07-13T03:29:00;17.70;74.30
5930;DHT22;2990;48.746;9.236;2023-07-13T03:31:28;17.70;77.00
5930;DHT22;2990;48.746;9.236;2023-07-13T03:33:55;17.70;69.40
5930;DHT22;2990;48.746;9.236;2023-07-13T03:36:23;17.80;66.00
5930;DHT22;2990;48.746;9.236;2023-07-13T03:38:54;17.80;63.60
5930;DHT22;2990;48.746;9.236;2023-07-13T03:41:21;17.80;53.20
5930;DHT22;2990;48.746;9.236;2023-07-13T03:43:48;17.80;55.80
5930;DHT22;2990;48.746;9.236;2023-07-13T03:46:14;17.80;56.30
5930;DHT22;2990;48.746;9.236;2023-07-13T03:48:41;17.90;54.10
5930;DHT22;2990;48.746;9.236;2023-07-13T03:51:09;17.90;51.60
5930;DHT22;2990;48.746;9.236;2023-07-13T03:53:38;17.80;53.10
5930;DHT22;2990;48.746;9.236;2023-07-13T03:56:04;17.90;53.10
5930;DHT22;2990;48.746;9.236;2023-07-13T03:58:33;17.90;50.40
5930;DHT22;2990;48.746;9.236;2023-07-13T04:01:00;17.90;51.40
5930;DHT22;2990;48.746;9.236;2023-07-13T04:03:27;17.90;46.20
5930;DHT22;2990;48.746;9.236;2023-07-13T04:05:56;17.80;44.30
5930;DHT22;2990;48.746;9.236;2023-07-13T04:08:30;17.90;44.20
5930;DHT22;2990;48.746;9.236;2023-07-13T04:10:57;17.90;47.10
5930;DHT22;2990;48.746;9.236;2023-07-13T04:13:23;17.90;44.30
5930;DHT22;2990;48.746;9.236;2023-07-13T04:15:49;17.90;42.50
5930;DHT22;2990;48.746;9.236;2023-07-13T04:18:15;17.90;48.10
5930;DHT22;2990;48.746;9.236;2023-07-13T04:20:40;17.80;43.20
5930;DHT22;2990;48.746;9.236;2023-07-13T04:23:06;17.90;48.00
5930;DHT22;2990;48.746;9.236;2023-07-13T04:25:32;17.90;48.70
5930;DHT22;2990;48.746;9.236;2023-07-13T04:27:57;17.90;44.50
5930;DHT22;2990;48.746;9.236;2023-07-13T04:30:23;17.90;43.60
5930;DHT22;2990;48.746;9.236;2023-07-13T04:32:50;17.90;44.70
5930;DHT22;2990;48.746;9.236;2023-07-13T04:35:17;18.00;39.00
5930;DHT22;2990;48.746;9.236;2023-07-13T04:37:43;18.00;38.90
5930;DHT22;2990;48.746;9.236;2023-07-13T04:40:09;18.00;38.00
5930;DHT22;2990;48.746;9.236;2023-07-13T04:42:38;17.90;36.10
5930;DHT22;2990;48.746;9.236;2023-07-13T04:45:05;17.90;32.60
5930;DHT22;2990;48.746;9.236;2023-07-13T04:47:31;17.90;36.90
5930;DHT22;2990;48.746;9.236;2023-07-13T04:49:57;17.80;43.10
5930;DHT22;2990;48.746;9.236;2023-07-13T04:52:23;17.80;45.00
5930;DHT22;2990;48.746;9.236;2023-07-13T04:54:49;17.80;49.90
5930;DHT22;2990;48.746;9.236;2023-07-13T04:57:14;17.80;37.40
5930;DHT22;2990;48.746;9.236;2023-07-13T04:59:40;17.80;44.60
5930;DHT22;2990;48.746;9.236;2023-07-13T05:02:06;17.80;44.80
5930;DHT22;2990;48.746;9.236;2023-07-13T05:04:32;17.80;41.40
5930;DHT22;2990;48.746;9.236;2023-07-13T05:06:57;17.80;48.10
5930;DHT22;2990;48.746;9.236;2023-07-13T05:09:23;17.80;45.50
5930;DHT22;2990;48.746;9.236;2023-07-13T05:11:48;17.90;43.40
5930;DHT22;2990;48.746;9.236;2023-07-13T05:14:14;17.90;48.50
5930;DHT22;2990;48.746;9.236;2023-07-13T05:16:40;17.90;53.50
5930;DHT22;2990;48.746;9.236;2023-07-13T05:19:06;18.00;52.40
5930;DHT22;2990;48.746;9.236;2023-07-13T05:21:31;18.00;49.40
5930;DHT22;2990;48.746;9.236;2023-07-13T05:23:57;18.10;49.40
5930;DHT22;2990;48.746;9.236;2023-07-13T05:26:22;18.10;45.20
5930;DHT22;2990;48.746;9.236;2023-07-13T05:28:48;18.10;45.40
5930;DHT22;2990;48.746;9.236;2023-07-13T05:31:14;18.10;44.90
5930;DHT22;2990;48.746;9.236;2023-07-13T05:33:39;18.10;36.30
5930;DHT22;2990;48.746;9.236;2023-07-13T05:36:05;18.20;47.60
5930;DHT22;2990;48.746;9.236;2023-07-13T05:38:32;18.20;51.90
5930;DHT22;2990;48.746;9.236;2023-07-13T05:40:58;18.30;52.90
5930;DHT22;2990;48.746;9.236;2023-07-13T05:43:24;18.30;43.80
5930;DHT22;2990;48.746;9.236;2023-07-13T05:45:56;18.40;50.90
5930;DHT22;2990;48.746;9.236;2023-07-13T05:48:21;18.40;51.90
5930;DHT22;2990;48.746;9.236;2023-07-13T05:50:47;18.40;51.40
5930;DHT22;2990;48.746;9.236;2023-07-13T05:53:13;18.40;50.20
5930;DHT22;2990;48.746;9.236;2023-07-13T05:55:43;18.30;45.80
5930;DHT22;2990;48.746;9.236;2023-07-13T05:58:09;18.30;71.00
5930;DHT22;2990;48.746;9.236;2023-07-13T06:00:35;18.30;46.50
5930;DHT22;2990;48.746;9.236;2023-07-13T06:03:00;18.30;48.10
5930;DHT22;2990;48.746;9.236;2023-07-13T06:05:26;18.30;55.70
5930;DHT22;2990;48.746;9.236;2023-07-13T06:07:54;18.30;54.40
5930;DHT22;2990;48.746;9.236;2023-07-13T06:10:20;18.30;59.80
5930;DHT22;2990;48.746;9.236;2023-07-13T06:12:45;18.30;61.80
5930;DHT22;2990;48.746;9.236;2023-07-13T06:15:11;18.30;54.50
5930;DHT22;2990;48.746;9.236;2023-07-13T06:17:36;18.50;49.40
5930;DHT22;2990;48.746;9.236;2023-07-13T06:20:02;18.80;38.70
5930;DHT22;2990;48.746;9.236;2023-07-13T06:22:27;19.00;30.60
5930;DHT22;2990;48.746;9.236;2023-07-13T06:24:53;19.20;33.10
5930;DHT22;2990;48.746;9.236;2023-07-13T06:27:19;19.30;27.90
5930;DHT22;2990;48.746;9.236;2023-07-13T06:29:44;19.40;32.00
5930;DHT22;2990;48.746;9.236;2023-07-13T06:32:10;19.60;17.60
5930;DHT22;2990;48.746;9.236;2023-07-13T06:34:36;19.80;15.30
5930;DHT22;2990;48.746;9.236;2023-07-13T06:37:01;19.90;10.40
5930;DHT22;2990;48.746;9.236;2023-07-13T06:39:27;20.00;1.60
5930;DHT22;2990;48.746;9.236;2023-07-13T06:41:52;19.90;5.30
5930;DHT22;2990;48.746;9.236;2023-07-13T06:44:18;19.80;1.00
5930;DHT22;2990;48.746;9.236;2023-07-13T06:46:43;19.90;1.00
5930;DHT22;2990;48.746;9.236;2023-07-13T06:49:09;20.10;1.00
5930;DHT22;2990;48.746;9.236;2023-07-13T06:51:35;20.30;1.00
5930;DHT22;2990;48.746;9.236;2023-07-13T06:54:00;20.50;1.00
5930;DHT22;2990;48.746;9.236;2023-07-13T06:56:26;20.70;1.00
5930;DHT22;2990;48.746;9.236;2023-07-13T06:58:51;20.80;1.00
5930;DHT22;2990;48.746;9.236;2023-07-13T07:01:17;20.90;1.00
5930;DHT22;2990;48.746;9.236;2023-07-13T07:03:42;20.90;1.00
5930;DHT22;2990;48.746;9.236;2023-07-13T07:06:16;21.00;1.00
5930;DHT22;2990;48.746;9.236;2023-07-13T07:08:42;21.10;1.00
5930;DHT22;2990;48.746;9.236;2023-07-13T07:11:11;21.20;1.00
5930;DHT22;2990;48.746;9.236;2023-07-13T07:13:36;21.20;1.00
5930;DHT22;2990;48.746;9.236;2023-07-13T07:16:02;21.40;1.00
5930;DHT22;2990;48.746;9.236;2023-07-13T07:18:27;21.50;1.00
5930;DHT22;2990;48.746;9.236;2023-07-13T07:20:53;21.70;1.00
5930;DHT22;2990;48.746;9.236;2023-07-13T07:23:18;21.80;1.00
5930;DHT22;2990;48.746;9.236;2023-07-13T07:25:44;21.80;1.00
5930;DHT22;2990;48.746;9.236;2023-07-13T07:28:12;22.00;1.00
5930;DHT22;2990;48.746;9.236;2023-07-13T07:30:42;21.90;1.00
5930;DHT22;2990;48.746;9.236;2023-07-13T07:33:08;22.00;1.00
5930;DHT22;2990;48.746;9.236;2023-07-13T07:35:34;22.10;1.00
5930;DHT22;2990;48.746;9.236;2023-07-13T07:37:59;22.10;1.00
5930;DHT22;2990;48.746;9.236;2023-07-13T07:40:25;22.10;1.00
5930;DHT22;2990;48.746;9.236;2023-07-13T07:42:51;22.10;1.00
5930;DHT22;2990;48.746;9.236;2023-07-13T07:45:19;22.20;1.00
5930;DHT22;2990;48.746;9.236;2023-07-13T07:47:44;22.20;1.00
5930;DHT22;2990;48.746;9.236;2023-07-13T07:50:10;22.30;1.00
5930;DHT22;2990;48.746;9.236;2023-07-13T07:52:37;22.40;1.00
5930;DHT22;2990;48.746;9.236;2023-07-13T07:55:04;22.40;1.00
5930;DHT22;2990;48.746;9.236;2023-07-13T07:57:30;22.50;1.00
5930;DHT22;2990;48.746;9.236;2023-07-13T07:59:55;22.50;1.00
5930;DHT22;2990;48.746;9.236;2023-07-13T08:02:21;22.40;1.00
5930;DHT22;2990;48.746;9.236;2023-07-13T08:04:46;22.40;1.00
5930;DHT22;2990;48.746;9.236;2023-07-13T08:07:12;22.50;1.00
5930;DHT22;2990;48.746;9.236;2023-07-13T08:09:37;22.60;1.00
5930;DHT22;2990;48.746;9.236;2023-07-13T08:12:03;22.40;1.00
5930;DHT22;2990;48.746;9.236;2023-07-13T08:14:29;22.50;1.00
5930;DHT22;2990;48.746;9.236;2023-07-13T08:16:54;22.50;1.00
5930;DHT22;2990;48.746;9.236;2023-07-13T08:19:20;22.60;1.00
5930;DHT22;2990;48.746;9.236;2023-07-13T08:21:46;22.70;1.00
5930;DHT22;2990;48.746;9.236;2023-07-13T08:24:13;22.70;1.00
5930;DHT22;2990;48.746;9.236;2023-07-13T08:26:39;22.80;1.00
5930;DHT22;2990;48.746;9.236;2023-07-13T08:29:05;22.90;1.00
5930;DHT22;2990;48.746;9.236;2023-07-13T08:31:30;23.10;1.00
5930;DHT22;2990;48.746;9.236;2023-07-13T08:33:56;23.20;1.00
5930;DHT22;2990;48.746;9.236;2023-07-13T08:36:22;23.40;1.00
5930;DHT22;2990;48.746;9.236;2023-07-13T08:38:47;23.60;1.00
5930;DHT22;2990;48.746;9.236;2023-07-13T08:41:16;23.70;1.00
5930;DHT22;2990;48.746;9.236;2023-07-13T08:43:45;23.80;1.00
5930;DHT22;2990;48.746;9.236;2023-07-13T08:46:28;23.70;1.00
5930;DHT22;2990;48.746;9.236;2023-07-13T08:48:59;23.70;1.00
5930;DHT22;2990;48.746;9.236;2023-07-13T08:56:44;23.60;1.00
5930;DHT22;2990;48.746;9.236;2023-07-13T08:59:14;23.80;1.00
5930;DHT22;2990;48.746;9.236;2023-07-13T09:05:03;23.50;1.00
5930;DHT22;2990;48.746;9.236;2023-07-13T09:10:21;23.80;1.00
5930;DHT22;2990;48.746;9.236;2023-07-13T09:15:34;23.80;1.00
5930;DHT22;2990;48.746;9.236;2023-07-13T09:18:14;23.90;1.00
5930;DHT22;2990;48.746;9.236;2023-07-13T09:20:51;24.00;1.00
5930;DHT22;2990;48.746;9.236;2023-07-13T09:23:20;24.10;1.00
5930;DHT22;2990;48.746;9.236;2023-07-13T09:25:48;24.40;1.00
5930;DHT22;2990;48.746;9.236;2023-07-13T09:33:14;24.60;1.00
5930;DHT22;2990;48.746;9.236;2023-07-13T09:35:40;24.30;1.00
5930;DHT22;2990;48.746;9.236;2023-07-13T09:38:14;24.20;1.00
5930;DHT22;2990;48.746;9.236;2023-07-13T09:41:19;24.40;1.00
5930;DHT22;2990;48.746;9.236;2023-07-13T09:46:34;24.80;1.00
5930;DHT22;2990;48.746;9.236;2023-07-13T09:49:00;25.00;1.00
5930;DHT22;2990;48.746;9.236;2023-07-13T09:51:25;25.40;1.00
5930;DHT22;2990;48.746;9.236;2023-07-13T09:53:51;25.70;1.00
5930;DHT22;2990;48.746;9.236;2023-07-13T09:56:26;25.70;1.00
5930;DHT22;2990;48.746;9.236;2023-07-13T09:58:52;25.90;1.00
5930;DHT22;2990;48.746;9.236;2023-07-13T10:01:32;25.80;1.00
5930;DHT22;2990;48.746;9.236;2023-07-13T10:03:58;25.50;1.00
5930;DHT22;2990;48.746;9.236;2023-07-13T10:06:24;25.10;1.00
5930;DHT22;2990;48.746;9.236;2023-07-13T10:08:52;24.80;1.00
5930;DHT22;2990;48.746;9.236;2023-07-13T10:11:21;24.70;1.00
5930;DHT22;2990;48.746;9.236;2023-07-13T10:13:52;24.50;1.00
5930;DHT22;2990;48.746;9.236;2023-07-13T10:16:19;24.60;1.00
5930;DHT22;2990;48.746;9.236;2023-07-13T10:18:59;24.60;1.00
5930;DHT22;2990;48.746;9.236;2023-07-13T10:21:30;24.70;1.00
5930;DHT22;2990;48.746;9.236;2023-07-13T10:24:04;24.80;1.00
5930;DHT22;2990;48.746;9.236;2023-07-13T10:26:33;24.90;1.00
5930;DHT22;2990;48.746;9.236;2023-07-13T10:29:06;25.10;1.00
5930;DHT22;2990;48.746;9.236;2023-07-13T10:31:40;25.00;1.00
5930;DHT22;2990;48.746;9.236;2023-07-13T10:34:10;25.10;1.00
5930;DHT22;2990;48.746;9.236;2023-07-13T10:36:41;25.20;1.00
5930;DHT22;2990;48.746;9.236;2023-07-13T10:39:13;25.10;1.00
5930;DHT22;2990;48.746;9.236;2023-07-13T10:41:41;25.20;1.00
5930;DHT22;2990;48.746;9.236;2023-07-13T10:44:47;25.30;1.00
5930;DHT22;2990;48.746;9.236;2023-07-13T10:47:08;25.70;1.00
5930;DHT22;2990;48.746;9.236;2023-07-13T10:49:39;25.80;1.00
5930;DHT22;2990;48.746;9.236;2023-07-13T10:55:02;25.70;1.00
5930;DHT22;2990;48.746;9.236;2023-07-13T10:57:28;25.70;1.00
5930;DHT22;2990;48.746;9.236;2023-07-13T11:00:16;25.50;1.00
5930;DHT22;2990;48.746;9.236;2023-07-13T11:02:43;25.20;1.00
5930;DHT22;2990;48.746;9.236;2023-07-13T11:05:28;25.40;1.00
5930;DHT22;2990;48.746;9.236;2023-07-13T11:08:02;25.50;1.00
5930;DHT22;2990;48.746;9.236;2023-07-13T11:16:00;25.80;1.00
5930;DHT22;2990;48.746;9.236;2023-07-13T11:18:26;26.10;1.00
5930;DHT22;2990;48.746;9.236;2023-07-13T11:20:52;26.40;1.00
5930;DHT22;2990;48.746;9.236;2023-07-13T11:23:42;26.60;1.00
5930;DHT22;2990;48.746;9.236;2023-07-13T11:31:41;26.60;1.00
5930;DHT22;2990;48.746;9.236;2023-07-13T11:34:13;26.60;1.00
5930;DHT22;2990;48.746;9.236;2023-07-13T11:36:43;26.70;1.00
5930;DHT22;2990;48.746;9.236;2023-07-13T11:39:32;26.40;1.00
5930;DHT22;2990;48.746;9.236;2023-07-13T11:42:05;26.10;1.00
5930;DHT22;2990;48.746;9.236;2023-07-13T11:44:33;25.90;1.00
5930;DHT22;2990;48.746;9.236;2023-07-13T11:47:10;25.70;1.00
5930;DHT22;2990;48.746;9.236;2023-07-13T11:49:45;25.30;1.00
5930;DHT22;2990;48.746;9.236;2023-07-13T11:52:16;25.00;1.00
5930;DHT22;2990;48.746;9.236;2023-07-13T11:54:51;24.80;1.00
5930;DHT22;2990;48.746;9.236;2023-07-13T11:57:30;24.70;1.00
5930;DHT22;2990;48.746;9.236;2023-07-13T12:00:00;24.70;1.00
5930;DHT22;2990;48.746;9.236;2023-07-13T12:02:36;24.80;1.00
5930;DHT22;2990;48.746;9.236;2023-07-13T12:05:04;24.90;1.00
5930;DHT22;2990;48.746;9.236;2023-07-13T12:07:32;25.00;1.00
5930;DHT22;2990;48.746;9.236;2023-07-13T12:10:15;25.10;1.00
5930;DHT22;2990;48.746;9.236;2023-07-13T12:12:53;25.00;1.00
5930;DHT22;2990;48.746;9.236;2023-07-13T12:15:21;25.10;1.00
5930;DHT22;2990;48.746;9.236;2023-07-13T12:17:48;24.90;1.00
5930;DHT22;2990;48.746;9.236;2023-07-13T12:20:26;25.00;1.00
5930;DHT22;2990;48.746;9.236;2023-07-13T12:22:52;25.20;1.00
5930;DHT22;2990;48.746;9.236;2023-07-13T12:25:19;25.50;1.00
5930;DHT22;2990;48.746;9.236;2023-07-13T12:27:49;25.30;1.00
5930;DHT22;2990;48.746;9.236;2023-07-13T12:30:32;25.20;1.00
5930;DHT22;2990;48.746;9.236;2023-07-13T12:33:05;25.40;1.00
5930;DHT22;2990;48.746;9.236;2023-07-13T12:35:41;25.70;1.00
5930;DHT22;2990;48.746;9.236;2023-07-13T12:38:10;26.10;1.00
5930;DHT22;2990;48.746;9.236;2023-07-13T12:40:36;26.20;1.00
5930;DHT22;2990;48.746;9.236;2023-07-13T12:43:03;26.20;1.00
5930;DHT22;2990;48.746;9.236;2023-07-13T12:45:30;26.20;1.00
5930;DHT22;2990;48.746;9.236;2023-07-13T12:48:15;26.30;1.00
5930;DHT22;2990;48.746;9.236;2023-07-13T12:50:45;26.20;1.00
5930;DHT22;2990;48.746;9.236;2023-07-13T12:53:20;25.60;1.00
5930;DHT22;2990;48.746;9.236;2023-07-13T12:55:51;25.80;1.00
5930;DHT22;2990;48.746;9.236;2023-07-13T12:58:24;25.50;1.00
5930;DHT22;2990;48.746;9.236;2023-07-13T13:00:51;25.30;1.00
5930;DHT22;2990;48.746;9.236;2023-07-13T13:03:30;25.10;1.00
5930;DHT22;2990;48.746;9.236;2023-07-13T13:05:59;25.10;1.00
5930;DHT22;2990;48.746;9.236;2023-07-13T13:08:25;25.00;1.00
5930;DHT22;2990;48.746;9.236;2023-07-13T13:10:51;24.90;1.00
5930;DHT22;2990;48.746;9.236;2023-07-13T13:13:16;25.10;1.00
5930;DHT22;2990;48.746;9.236;2023-07-13T13:15:42;25.30;1.00
5930;DHT22;2990;48.746;9.236;2023-07-13T13:18:16;25.70;1.00
5930;DHT22;2990;48.746;9.236;2023-07-13T13:20:43;25.60;1.00
5930;DHT22;2990;48.746;9.236;2023-07-13T13:23:14;25.80;1.00
5930;DHT22;2990;48.746;9.236;2023-07-13T13:25:41;26.00;1.00
5930;DHT22;2990;48.746;9.236;2023-07-13T13:28:13;26.40;1.00
5930;DHT22;2990;48.746;9.236;2023-07-13T13:30:40;26.60;1.00
5930;DHT22;2990;48.746;9.236;2023-07-13T13:33:10;26.80;1.00
5930;DHT22;2990;48.746;9.236;2023-07-13T13:35:36;26.80;1.00
5930;DHT22;2990;48.746;9.236;2023-07-13T13:38:01;26.80;1.00
5930;DHT22;2990;48.746;9.236;2023-07-13T13:40:27;26.60;1.00
5930;DHT22;2990;48.746;9.236;2023-07-13T13:42:54;26.60;1.00
5930;DHT22;2990;48.746;9.236;2023-07-13T13:45:21;26.90;1.00
5930;DHT22;2990;48.746;9.236;2023-07-13T13:47:47;27.00;1.00
5930;DHT22;2990;48.746;9.236;2023-07-13T13:50:20;27.10;1.00
5930;DHT22;2990;48.746;9.236;2023-07-13T13:52:47;27.00;1.00
5930;DHT22;2990;48.746;9.236;2023-07-13T13:55:18;27.10;1.00
5930;DHT22;2990;48.746;9.236;2023-07-13T13:57:47;27.50;1.00
5930;DHT22;2990;48.746;9.236;2023-07-13T14:00:15;27.50;1.00
5930;DHT22;2990;48.746;9.236;2023-07-13T14:02:45;27.50;1.00
5930;DHT22;2990;48.746;9.236;2023-07-13T14:05:14;27.70;1.00
5930;DHT22;2990;48.746;9.236;2023-07-13T14:07:40;27.80;1.00
5930;DHT22;2990;48.746;9.236;2023-07-13T14:10:12;27.80;1.00
5930;DHT22;2990;48.746;9.236;2023-07-13T14:12:38;27.90;1.00
5930;DHT22;2990;48.746;9.236;2023-07-13T14:15:04;27.60;1.00
5930;DHT22;2990;48.746;9.236;2023-07-13T14:17:31;27.30;1.00
5930;DHT22;2990;48.746;9.236;2023-07-13T14:19:56;26.90;1.00
5930;DHT22;2990;48.746;9.236;2023-07-13T14:22:26;26.40;1.00
5930;DHT22;2990;48.746;9.236;2023-07-13T14:24:53;26.40;1.00
5930;DHT22;2990;48.746;9.236;2023-07-13T14:27:20;26.60;1.00
5930;DHT22;2990;48.746;9.236;2023-07-13T14:29:45;26.70;1.00
5930;DHT22;2990;48.746;9.236;2023-07-13T14:32:12;26.60;1.00
5930;DHT22;2990;48.746;9.236;2023-07-13T14:34:38;26.30;1.00
5930;DHT22;2990;48.746;9.236;2023-07-13T14:37:04;25.90;1.00
5930;DHT22;2990;48.746;9.236;2023-07-13T14:39:31;25.90;1.00
5930;DHT22;2990;48.746;9.236;2023-07-13T14:41:57;25.60;1.00
5930;DHT22;2990;48.746;9.236;2023-07-13T14:44:30;25.60;1.00
5930;DHT22;2990;48.746;9.236;2023-07-13T14:47:01;25.50;1.00
5930;DHT22;2990;48.746;9.236;2023-07-13T14:49:32;25.50;1.00
5930;DHT22;2990;48.746;9.236;2023-07-13T14:52:01;25.10;1.00
5930;DHT22;2990;48.746;9.236;2023-07-13T14:54:27;25.10;1.00
5930;DHT22;2990;48.746;9.236;2023-07-13T14:56:52;25.20;1.00
5930;DHT22;2990;48.746;9.236;2023-07-13T14:59:18;25.30;1.00
5930;DHT22;2990;48.746;9.236;2023-07-13T15:01:49;25.40;1.00
5930;DHT22;2990;48.746;9.236;2023-07-13T15:04:16;25.60;1.00
5930;DHT22;2990;48.746;9.236;2023-07-13T15:07:00;25.70;1.00
5930;DHT22;2990;48.746;9.236;2023-07-13T15:09:26;26.00;1.00
5930;DHT22;2990;48.746;9.236;2023-07-13T15:11:55;26.40;1.00
5930;DHT22;2990;48.746;9.236;2023-07-13T15:14:21;26.60;1.00
5930;DHT22;2990;48.746;9.236;2023-07-13T15:16:49;26.70;1.00
5930;DHT22;2990;48.746;9.236;2023-07-13T15:19:16;26.60;1.00
5930;DHT22;2990;48.746;9.236;2023-07-13T15:21:43;26.40;1.00
5930;DHT22;2990;48.746;9.236;2023-07-13T15:24:12;26.10;1.00
5930;DHT22;2990;48.746;9.236;2023-07-13T15:26:38;25.90;1.00
5930;DHT22;2990;48.746;9.236;2023-07-13T15:29:05;26.00;1.00
5930;DHT22;2990;48.746;9.236;2023-07-13T15:31:32;26.40;1.00
5930;DHT22;2990;48.746;9.236;2023-07-13T15:33:59;26.90;1.00
5930;DHT22;2990;48.746;9.236;2023-07-13T15:36:25;26.80;1.00
5930;DHT22;2990;48.746;9.236;2023-07-13T15:38:53;26.50;1.00
5930;DHT22;2990;48.746;9.236;2023-07-13T15:41:21;26.70;1.00
5930;DHT22;2990;48.746;9.236;2023-07-13T15:43:49;27.00;1.00
5930;DHT22;2990;48.746;9.236;2023-07-13T15:46:17;27.30;1.00
5930;DHT22;2990;48.746;9.236;2023-07-13T15:48:43;27.70;1.00
5930;DHT22;2990;48.746;9.236;2023-07-13T15:51:16;28.20;1.00
5930;DHT22;2990;48.746;9.236;2023-07-13T15:53:43;27.60;1.00
5930;DHT22;2990;48.746;9.236;2023-07-13T15:56:19;27.30;1.00
5930;DHT22;2990;48.746;9.236;2023-07-13T15:58:45;27.10;1.00
5930;DHT22;2990;48.746;9.236;2023-07-13T16:01:12;27.20;1.00
5930;DHT22;2990;48.746;9.236;2023-07-13T16:03:38;27.00;1.00
5930;DHT22;2990;48.746;9.236;2023-07-13T16:06:29;26.70;1.00
5930;DHT22;2990;48.746;9.236;2023-07-13T16:08:55;26.60;1.00
5930;DHT22;2990;48.746;9.236;2023-07-13T16:11:30;26.50;1.00
5930;DHT22;2990;48.746;9.236;2023-07-13T16:13:58;26.50;1.00
5930;DHT22;2990;48.746;9.236;2023-07-13T16:16:28;26.50;1.00
5930;DHT22;2990;48.746;9.236;2023-07-13T16:18:55;26.30;1.00
5930;DHT22;2990;48.746;9.236;2023-07-13T16:21:27;26.20;1.00
5930;DHT22;2990;48.746;9.236;2023-07-13T16:23:54;26.10;1.00
5930;DHT22;2990;48.746;9.236;2023-07-13T16:26:35;26.30;1.00
5930;DHT22;2990;48.746;9.236;2023-07-13T16:29:18;27.30;1.00
5930;DHT22;2990;48.746;9.236;2023-07-13T16:32:09;27.70;1.00
5930;DHT22;2990;48.746;9.236;2023-07-13T16:34:37;27.00;1.00
5930;DHT22;2990;48.746;9.236;2023-07-13T16:37:13;26.30;1.00
5930;DHT22;2990;48.746;9.236;2023-07-13T16:39:43;26.00;1.00
5930;DHT22;2990;48.746;9.236;2023-07-13T16:42:10;25.70;1.00
5930;DHT22;2990;48.746;9.236;2023-07-13T16:44:37;25.60;1.00
5930;DHT22;2990;48.746;9.236;2023-07-13T16:47:08;25.30;1.00
5930;DHT22;2990;48.746;9.236;2023-07-13T16:49:38;25.10;1.00
5930;DHT22;2990;48.746;9.236;2023-07-13T16:52:04;24.90;1.00
5930;DHT22;2990;48.746;9.236;2023-07-13T16:54:36;24.80;1.00
5930;DHT22;2990;48.746;9.236;2023-07-13T16:57:30;24.70;1.00
5930;DHT22;2990;48.746;9.236;2023-07-13T16:59:52;24.50;1.00
5930;DHT22;2990;48.746;9.236;2023-07-13T17:04:49;24.40;1.00